Weather at Sky Park Airport

Public forecast

Using degrees Fahrenheit for public forecast. Weather courtesy of forecast.io.

Closest aviation weather report (METAR) to Sky Park Airport

Closest report is Flying Cloud Airport, 10.4 nm (19.2 km) NNE. Retrieved 2021/07/24 21:53 UTC (47 minutes ago):

KFCM 242153Z 32009G19KT 9SM CLR 32/11 A2990 RMK AO2 SLP119 T03170106

Closest aviation forecast (TAF) to Sky Park Airport

Forecast is more than 12 hours old.

Closest forecast is Flying Cloud Airport, 10.4 nm (19.2 km) NNE. Retrieved 2018/02/05 00:21 UTC (3 years ago):

TAF KFCM 052320Z 0600/0624 30007KT P6SM FEW200 FM061000 VRB03KT P6SM FEW250 FM061800 22006KT P6SM SCT100 BKN250 AMD NOT SKED